Dallas, Texas
Traffic Map
Current Weather Conditions
Dallas, Texas
Broken Clouds
Broken Clouds
44°
Feels Like: 40°
Wind Chill: 40° Ceiling: 1800
Heat Index: 44° Visibility: 10mi
Dew Point: 36° Wind: 7mph
Humidity: 73% Direction: 10° (N)
Pressure: 30.4in Gusts: 0mph
Raw Report DataKDAL 061753Z 01006KT 10SM BKN018 BKN025 07/02 A3040 RMK AO2 SLP295 T00670022 10067 20028 51030
Traffic Incident Summary
Active as of:
Severity:
Category:
InformationThere was an issue retrieving the traffic information for this location. Please try a different location or try again shortly.
Advertisements
Track Severe Weather on mobile